Time;durP1;ratioP1;P1;durP2;ratioP2;P2;SDS_P1;SDS_P2;PMS_P1;PMS_P2;Temp;Humidity;BMP_temperature;BMP_pressure;BME280_temperature;BME280_humidity;BME280_pressure;Samples;Min_cycle;Max_cycle;Signal;HPM_P1;HPM_P2
2021/06/23 00:00:20;;;;;;;44.55;26.67;;;;;;;;;;5094976;28;20020;-43
2021/06/23 00:02:46;;;;;;;37.50;22.08;;;;;;;;;;5094731;28;20030;-42
2021/06/23 00:05:12;;;;;;;55.92;26.70;;;;;;;;;;5095103;28;20016;-40
2021/06/23 00:07:40;;;;;;;47.55;17.48;;;;;;;;;;5094673;28;20067;-40
2021/06/23 00:10:07;;;;;;;33.97;15.70;;;;;;;;;;5094537;28;20054;-41
2021/06/23 00:12:33;;;;;;;40.70;15.05;;;;;;;;;;5094516;28;20448;-42
2021/06/23 00:14:59;;;;;;;32.83;13.68;;;;;;;;;;5094497;28;20403;-43
2021/06/23 00:17:28;;;;;;;29.25;10.02;;;;;;;;;;5094341;28;20086;-45
2021/06/23 00:19:54;;;;;;;32.33;7.97;;;;;;;;;;5095021;28;20305;-43
2021/06/23 00:22:20;;;;;;;28.95;7.57;;;;;;;;;;5094846;28;20020;-42
2021/06/23 00:24:46;;;;;;;27.27;7.18;;;;;;;;;;5094755;28;20058;-45
2021/06/23 00:27:12;;;;;;;19.45;7.30;;;;;;;;;;5094716;28;20025;-43
2021/06/23 00:29:39;;;;;;;27.85;6.80;;;;;;;;;;5094682;28;20020;-43
2021/06/23 00:32:05;;;;;;;23.02;5.85;;;;;;;;;;5094216;28;20020;-42
2021/06/23 00:34:31;;;;;;;24.98;6.65;;;;;;;;;;5094305;28;20103;-42
2021/06/23 00:36:57;;;;;;;22.27;5.90;;;;;;;;;;5094334;28;20043;-41
2021/06/23 00:39:26;;;;;;;28.17;6.35;;;;;;;;;;5094167;28;20028;-41
2021/06/23 00:41:52;;;;;;;26.92;7.35;;;;;;;;;;5094147;28;20136;-41
2021/06/23 00:44:20;;;;;;;29.75;5.53;;;;;;;;;;5093862;28;20063;-40
2021/06/23 00:46:46;;;;;;;27.23;6.70;;;;;;;;;;5093820;28;20381;-40
2021/06/23 00:49:12;;;;;;;26.95;6.85;;;;;;;;;;5093916;28;20042;-40
2021/06/23 00:51:39;;;;;;;21.00;5.75;;;;;;;;;;5093792;28;20461;-40
2021/06/23 00:54:10;;;;;;;21.27;5.72;;;;;;;;;;5093754;28;20039;-44
2021/06/23 00:56:36;;;;;;;28.73;6.25;;;;;;;;;;5093831;28;20020;-40
2021/06/23 00:59:03;;;;;;;21.10;6.68;;;;;;;;;;5093660;28;20502;-42
2021/06/23 01:01:33;;;;;;;47.47;22.35;;;;;;;;;;5093564;28;20024;-43
2021/06/23 01:04:02;;;;;;;25.63;6.63;;;;;;;;;;5093364;28;20024;-43
2021/06/23 01:06:29;;;;;;;29.50;7.10;;;;;;;;;;5093735;28;20515;-43
2021/06/23 01:08:55;;;;;;;19.65;8.60;;;;;;;;;;5093642;28;20044;-43
2021/06/23 01:11:22;;;;;;;26.88;7.15;;;;;;;;;;5093522;28;20016;-42
2021/06/23 01:13:56;;;;;;;34.45;6.18;;;;;;;;;;5093218;28;20177;-43
2021/06/23 01:16:22;;;;;;;25.58;5.93;;;;;;;;;;5093559;28;20031;-41
2021/06/23 01:18:49;;;;;;;41.92;16.30;;;;;;;;;;5093314;28;20035;-41
2021/06/23 01:21:15;;;;;;;33.15;12.23;;;;;;;;;;5093375;28;20364;-43
2021/06/23 01:23:41;;;;;;;29.25;9.02;;;;;;;;;;5093367;28;20020;-41
2021/06/23 01:26:07;;;;;;;22.70;6.07;;;;;;;;;;5093284;28;20020;-42
2021/06/23 01:28:33;;;;;;;19.85;7.30;;;;;;;;;;5093340;28;20035;-40
2021/06/23 01:31:00;;;;;;;25.88;6.57;;;;;;;;;;5093202;28;20020;-43
2021/06/23 01:33:27;;;;;;;26.27;7.45;;;;;;;;;;5093280;28;20074;-41
2021/06/23 01:35:53;;;;;;;28.13;7.38;;;;;;;;;;5093202;28;20024;-41
2021/06/23 01:38:19;;;;;;;18.02;5.53;;;;;;;;;;5092978;28;20036;-43
2021/06/23 01:40:45;;;;;;;27.55;6.38;;;;;;;;;;5093178;28;20020;-43
2021/06/23 01:43:12;;;;;;;26.67;6.57;;;;;;;;;;5093096;28;20036;-42
2021/06/23 01:45:38;;;;;;;26.83;6.50;;;;;;;;;;5093087;28;20023;-42
2021/06/23 01:48:04;;;;;;;20.42;6.13;;;;;;;;;;5093246;28;20059;-43
2021/06/23 01:50:31;;;;;;;29.20;6.57;;;;;;;;;;5093549;28;20031;-41
2021/06/23 01:52:57;;;;;;;29.55;6.18;;;;;;;;;;5093308;28;20028;-43
2021/06/23 01:55:27;;;;;;;17.23;6.07;;;;;;;;;;5093311;28;20110;-40
2021/06/23 01:58:00;;;;;;;20.83;6.70;;;;;;;;;;5092976;28;20035;-43
2021/06/23 02:00:55;;;;;;;20.63;5.07;;;;;;;;;;5092995;28;20095;-43
2021/06/23 02:03:40;;;;;;;21.75;7.35;;;;;;;;;;5082903;28;20042;-41
2021/06/23 02:06:07;;;;;;;24.60;6.50;;;;;;;;;;5093134;28;20035;-41
2021/06/23 02:08:37;;;;;;;23.63;5.90;;;;;;;;;;5093125;28;20044;-41
2021/06/23 02:11:06;;;;;;;22.17;5.70;;;;;;;;;;5092850;28;20099;-41
2021/06/23 02:13:35;;;;;;;19.52;5.18;;;;;;;;;;5092725;28;20105;-42
2021/06/23 02:16:08;;;;;;;19.88;5.30;;;;;;;;;;5094141;28;20024;-41
2021/06/23 02:18:35;;;;;;;24.30;5.15;;;;;;;;;;5096812;28;20059;-41
2021/06/23 02:21:01;;;;;;;23.85;5.80;;;;;;;;;;5097014;28;20024;-45
2021/06/23 02:23:27;;;;;;;22.27;5.60;;;;;;;;;;5097007;28;20028;-43
2021/06/23 02:25:53;;;;;;;21.92;5.03;;;;;;;;;;5097179;28;20448;-44
2021/06/23 02:28:20;;;;;;;21.17;5.30;;;;;;;;;;5097133;28;20439;-43
2021/06/23 02:30:46;;;;;;;17.40;4.90;;;;;;;;;;5096795;28;20504;-42
2021/06/23 02:33:12;;;;;;;14.68;4.32;;;;;;;;;;5096801;28;20031;-43
2021/06/23 02:35:39;;;;;;;14.98;5.00;;;;;;;;;;5096762;28;20020;-42
2021/06/23 02:38:06;;;;;;;22.77;5.03;;;;;;;;;;5096515;28;20032;-42
2021/06/23 02:40:33;;;;;;;16.77;4.43;;;;;;;;;;5096756;28;20024;-43
2021/06/23 02:42:59;;;;;;;18.92;4.85;;;;;;;;;;5096622;28;20531;-44
2021/06/23 02:45:26;;;;;;;19.90;4.78;;;;;;;;;;5096542;28;20024;-42
2021/06/23 02:47:53;;;;;;;20.13;4.32;;;;;;;;;;5096429;28;20028;-46
2021/06/23 02:50:19;;;;;;;22.58;5.68;;;;;;;;;;5096478;28;20379;-44
2021/06/23 02:52:45;;;;;;;15.80;5.68;;;;;;;;;;5096351;28;20056;-45
2021/06/23 02:55:19;;;;;;;17.75;5.72;;;;;;;;;;5096525;28;20111;-45
2021/06/23 02:57:47;;;;;;;17.30;4.47;;;;;;;;;;5096238;28;20584;-44
2021/06/23 03:00:14;;;;;;;22.60;4.85;;;;;;;;;;5096285;28;20062;-44
2021/06/23 03:02:40;;;;;;;15.35;4.28;;;;;;;;;;5096143;28;20427;-44
2021/06/23 03:05:06;;;;;;;18.50;4.85;;;;;;;;;;5096287;28;20058;-44
2021/06/23 03:07:32;;;;;;;22.45;4.18;;;;;;;;;;5096252;28;20032;-44
2021/06/23 03:10:09;;;;;;;15.98;5.05;;;;;;;;;;5096425;28;20459;-45
2021/06/23 03:12:35;;;;;;;19.30;6.78;;;;;;;;;;5096260;28;20028;-45
2021/06/23 03:15:01;;;;;;;19.83;5.68;;;;;;;;;;5096069;28;20058;-44
2021/06/23 03:17:28;;;;;;;17.35;5.20;;;;;;;;;;5095842;28;20067;-44
2021/06/23 03:19:54;;;;;;;16.75;5.43;;;;;;;;;;5095914;28;20054;-40
2021/06/23 03:22:20;;;;;;;12.93;4.82;;;;;;;;;;5095861;28;20083;-45
2021/06/23 03:24:46;;;;;;;19.38;5.53;;;;;;;;;;5095914;28;20070;-44
2021/06/23 03:27:12;;;;;;;17.63;4.82;;;;;;;;;;5095597;28;20421;-41
2021/06/23 03:29:39;;;;;;;17.77;4.40;;;;;;;;;;5095926;28;20028;-45
2021/06/23 03:32:07;;;;;;;12.57;4.75;;;;;;;;;;5095713;28;20020;-46
2021/06/23 03:34:33;;;;;;;22.55;6.13;;;;;;;;;;5095670;28;20428;-43
2021/06/23 03:36:59;;;;;;;22.02;5.28;;;;;;;;;;5096103;28;20047;-41
2021/06/23 03:39:25;;;;;;;23.02;4.88;;;;;;;;;;5095664;28;20027;-44
2021/06/23 03:41:51;;;;;;;15.57;3.92;;;;;;;;;;5095563;28;20035;-45
2021/06/23 03:44:17;;;;;;;14.75;4.88;;;;;;;;;;5095290;28;20024;-44
2021/06/23 03:46:43;;;;;;;20.10;4.63;;;;;;;;;;5095508;28;20074;-41
2021/06/23 03:49:09;;;;;;;18.98;4.78;;;;;;;;;;5095304;28;20482;-46
2021/06/23 03:51:35;;;;;;;20.27;4.57;;;;;;;;;;5094012;28;20024;-45
2021/06/23 03:54:01;;;;;;;16.23;4.28;;;;;;;;;;5095366;28;20048;-45
2021/06/23 03:56:28;;;;;;;12.65;3.53;;;;;;;;;;5095260;28;20031;-44
2021/06/23 03:58:54;;;;;;;20.30;4.25;;;;;;;;;;5095046;28;20036;-45
2021/06/23 04:01:20;;;;;;;16.15;5.35;;;;;;;;;;5095089;28;20024;-47
2021/06/23 04:03:46;;;;;;;15.02;3.78;;;;;;;;;;5095217;28;20067;-45
2021/06/23 04:06:12;;;;;;;19.13;5.55;;;;;;;;;;5095200;28;20028;-44
2021/06/23 04:08:38;;;;;;;16.48;6.30;;;;;;;;;;5095543;28;20460;-42
2021/06/23 04:11:04;;;;;;;16.05;5.82;;;;;;;;;;5095153;28;20024;-44
2021/06/23 04:13:30;;;;;;;12.15;5.50;;;;;;;;;;5094631;28;20060;-42
2021/06/23 04:15:57;;;;;;;15.30;3.67;;;;;;;;;;5094930;28;20157;-43
2021/06/23 04:18:23;;;;;;;7.00;3.10;;;;;;;;;;5094643;28;20108;-45
2021/06/23 04:20:49;;;;;;;15.35;3.40;;;;;;;;;;5094856;28;20020;-40
2021/06/23 04:23:15;;;;;;;27.27;12.88;;;;;;;;;;5094705;28;20476;-40
2021/06/23 04:25:41;;;;;;;13.63;5.55;;;;;;;;;;5094879;28;20396;-40
2021/06/23 04:28:07;;;;;;;13.27;6.20;;;;;;;;;;5094607;28;20092;-43
2021/06/23 04:30:33;;;;;;;9.85;3.60;;;;;;;;;;5094637;28;20024;-43
2021/06/23 04:33:00;;;;;;;17.60;5.03;;;;;;;;;;5094613;28;20032;-40
2021/06/23 04:35:26;;;;;;;14.77;4.82;;;;;;;;;;5094622;28;20024;-44
2021/06/23 04:37:52;;;;;;;16.25;6.80;;;;;;;;;;5094338;28;20123;-40
2021/06/23 04:40:18;;;;;;;20.55;7.63;;;;;;;;;;5093891;28;20023;-45
2021/06/23 04:42:44;;;;;;;15.05;4.80;;;;;;;;;;5094405;28;20563;-44
2021/06/23 04:45:11;;;;;;;12.65;4.30;;;;;;;;;;5094371;28;20039;-40
2021/06/23 04:47:38;;;;;;;23.15;6.05;;;;;;;;;;5094056;28;20106;-43
2021/06/23 04:50:05;;;;;;;12.00;3.80;;;;;;;;;;5092853;28;20039;-46
2021/06/23 04:52:32;;;;;;;10.35;3.88;;;;;;;;;;5094029;28;20023;-44
2021/06/23 04:54:58;;;;;;;14.05;4.40;;;;;;;;;;5094257;28;20020;-40
2021/06/23 04:57:24;;;;;;;11.43;3.25;;;;;;;;;;5094070;28;20036;-44
2021/06/23 04:59:50;;;;;;;9.68;3.90;;;;;;;;;;5093906;28;20032;-41
2021/06/23 05:02:16;;;;;;;16.60;3.63;;;;;;;;;;5094134;28;20425;-43
2021/06/23 05:04:42;;;;;;;12.48;3.38;;;;;;;;;;5093856;28;20111;-45
2021/06/23 05:07:09;;;;;;;19.15;3.65;;;;;;;;;;5093846;28;20020;-44
2021/06/23 05:09:38;;;;;;;11.90;3.15;;;;;;;;;;5093751;28;20097;-43
2021/06/23 05:12:05;;;;;;;12.10;3.50;;;;;;;;;;5093956;28;20107;-45
2021/06/23 05:14:31;;;;;;;10.80;3.40;;;;;;;;;;5093544;28;20079;-45
2021/06/23 05:17:00;;;;;;;10.35;3.00;;;;;;;;;;5093787;28;20039;-45
2021/06/23 05:19:26;;;;;;;18.15;3.65;;;;;;;;;;5093622;28;20103;-44
2021/06/23 05:21:52;;;;;;;10.43;3.67;;;;;;;;;;5093556;28;20103;-40
2021/06/23 05:24:18;;;;;;;12.43;3.20;;;;;;;;;;5093529;28;20023;-45
2021/06/23 05:26:45;;;;;;;11.98;3.20;;;;;;;;;;5093762;28;20059;-43
2021/06/23 05:29:11;;;;;;;10.05;4.05;;;;;;;;;;5093514;28;20525;-41
2021/06/23 05:31:37;;;;;;;15.27;2.65;;;;;;;;;;5093794;28;20072;-40
2021/06/23 05:34:03;;;;;;;15.65;3.92;;;;;;;;;;5093336;28;20028;-44
2021/06/23 05:36:29;;;;;;;12.23;3.40;;;;;;;;;;5093485;28;20382;-44
2021/06/23 05:38:56;;;;;;;16.23;2.95;;;;;;;;;;5093201;28;20040;-45
2021/06/23 05:41:22;;;;;;;12.10;3.80;;;;;;;;;;5093452;28;20047;-44
2021/06/23 05:43:48;;;;;;;10.07;3.17;;;;;;;;;;5093255;28;20032;-43
2021/06/23 05:46:14;;;;;;;16.45;3.35;;;;;;;;;;5092066;28;20499;-48
2021/06/23 05:48:40;;;;;;;14.50;3.60;;;;;;;;;;5093308;28;20028;-44
2021/06/23 05:51:07;;;;;;;9.85;3.35;;;;;;;;;;5093344;28;20368;-41
2021/06/23 05:53:33;;;;;;;12.77;3.67;;;;;;;;;;5093060;28;20262;-45
2021/06/23 05:55:59;;;;;;;13.85;3.20;;;;;;;;;;5093323;28;20115;-42
2021/06/23 05:58:25;;;;;;;11.65;3.70;;;;;;;;;;5093350;28;20032;-42
2021/06/23 06:00:51;;;;;;;13.18;3.28;;;;;;;;;;5093224;28;20095;-41
2021/06/23 06:03:17;;;;;;;10.52;3.20;;;;;;;;;;5093107;28;20063;-41
2021/06/23 06:05:43;;;;;;;15.77;3.30;;;;;;;;;;5091972;28;20373;-40
2021/06/23 06:08:09;;;;;;;14.75;3.70;;;;;;;;;;5092921;28;20031;-41
2021/06/23 06:10:36;;;;;;;9.13;3.30;;;;;;;;;;5093027;28;20063;-41
2021/06/23 06:13:06;;;;;;;9.95;3.50;;;;;;;;;;5092927;28;20056;-41
2021/06/23 06:15:33;;;;;;;23.88;10.23;;;;;;;;;;5092753;28;20040;-44
2021/06/23 06:18:03;;;;;;;142.68;88.35;;;;;;;;;;5092493;28;20158;-42
2021/06/23 06:20:29;;;;;;;394.75;324.88;;;;;;;;;;5091475;28;20040;-45
2021/06/23 06:22:55;;;;;;;34.03;19.52;;;;;;;;;;5092809;28;20106;-42
2021/06/23 06:25:22;;;;;;;147.07;89.15;;;;;;;;;;5092775;28;20028;-44
2021/06/23 06:27:48;;;;;;;62.58;43.85;;;;;;;;;;5092960;28;20024;-46
2021/06/23 06:30:14;;;;;;;99.03;69.88;;;;;;;;;;5092680;28;20498;-42
2021/06/23 06:32:40;;;;;;;62.90;41.90;;;;;;;;;;5092635;28;20020;-43
2021/06/23 06:35:07;;;;;;;208.57;109.13;;;;;;;;;;5092670;28;20032;-40
2021/06/23 06:37:33;;;;;;;45.85;24.38;;;;;;;;;;5091175;28;20172;-41
2021/06/23 06:39:59;;;;;;;48.17;21.23;;;;;;;;;;5092933;28;20016;-42
2021/06/23 06:42:25;;;;;;;24.38;11.63;;;;;;;;;;5092597;28;20031;-42
2021/06/23 06:44:52;;;;;;;9.00;3.88;;;;;;;;;;5092461;28;20490;-43
2021/06/23 06:47:18;;;;;;;10.98;3.72;;;;;;;;;;5092700;28;20081;-44
2021/06/23 06:49:44;;;;;;;22.52;11.20;;;;;;;;;;5092515;28;20357;-42
2021/06/23 06:52:10;;;;;;;13.45;4.50;;;;;;;;;;5084422;28;20024;-41
2021/06/23 06:54:36;;;;;;;10.35;3.70;;;;;;;;;;5071702;28;20051;-42
2021/06/23 06:57:03;;;;;;;9.65;3.20;;;;;;;;;;5069021;28;20021;-42
2021/06/23 06:59:30;;;;;;;8.27;2.58;;;;;;;;;;5071802;28;20052;-43
2021/06/23 07:01:56;;;;;;;14.55;3.85;;;;;;;;;;5072493;28;20016;-43
2021/06/23 07:04:22;;;;;;;11.88;3.50;;;;;;;;;;5072757;28;20476;-44
2021/06/23 07:06:49;;;;;;;10.00;2.85;;;;;;;;;;5075436;28;20024;-45
2021/06/23 07:09:15;;;;;;;7.03;2.58;;;;;;;;;;5074993;28;20017;-42
2021/06/23 07:11:43;;;;;;;11.63;4.63;;;;;;;;;;5075159;28;20021;-44
2021/06/23 07:14:09;;;;;;;36.20;14.00;;;;;;;;;;5074964;28;20055;-41
2021/06/23 07:16:36;;;;;;;11.43;3.70;;;;;;;;;;5075102;28;20019;-43
2021/06/23 07:19:02;;;;;;;26.92;10.60;;;;;;;;;;5074997;28;20032;-42
2021/06/23 07:21:30;;;;;;;13.38;3.35;;;;;;;;;;5055174;28;20527;-41
2021/06/23 07:23:58;;;;;;;20.73;9.65;;;;;;;;;;5054949;28;20540;-42
2021/06/23 07:26:28;;;;;;;12.88;3.85;;;;;;;;;;5052843;28;20029;-42
2021/06/23 07:28:55;;;;;;;8.07;3.15;;;;;;;;;;5055089;28;20029;-42
2021/06/23 07:31:38;;;;;;;8.63;3.33;;;;;;;;;;5055028;28;20071;-43
2021/06/23 07:36:40;;;;;;;15.82;6.88;;;;;;;;;;5054718;28;20024;-43
2021/06/23 07:39:10;;;;;;;15.05;4.75;;;;;;;;;;5052595;28;20029;-42
2021/06/23 07:41:37;;;;;;;10.88;3.67;;;;;;;;;;5054736;28;20514;-42
2021/06/23 07:44:04;;;;;;;9.98;2.85;;;;;;;;;;5051978;28;20076;-42
2021/06/23 07:46:34;;;;;;;9.27;3.83;;;;;;;;;;5054525;28;20100;-43
2021/06/23 07:49:01;;;;;;;7.65;2.75;;;;;;;;;;5054568;28;20105;-43
2021/06/23 07:51:39;;;;;;;6.32;3.10;;;;;;;;;;5054953;28;20025;-42
2021/06/23 08:10:30;;;;;;;11.48;3.92;;;;;;;;;;5054284;28;20036;-42
2021/06/23 08:12:58;;;;;;;7.88;3.42;;;;;;;;;;5053648;28;20025;-42
2021/06/23 08:15:25;;;;;;;10.73;4.10;;;;;;;;;;5050795;28;20037;-43
2021/06/23 08:17:51;;;;;;;5.35;2.60;;;;;;;;;;5053889;28;20025;-41
2021/06/23 08:20:17;;;;;;;7.38;2.38;;;;;;;;;;5053570;28;20519;-43
2021/06/23 08:22:43;;;;;;;6.50;1.50;;;;;;;;;;5053832;28;20082;-43
2021/06/23 08:25:09;;;;;;;7.22;4.25;;;;;;;;;;5053831;28;20079;-41
2021/06/23 08:27:36;;;;;;;10.02;5.05;;;;;;;;;;5053873;28;20024;-43
2021/06/23 08:30:02;;;;;;;13.40;6.90;;;;;;;;;;5053917;28;20033;-43
2021/06/23 08:32:28;;;;;;;16.05;8.20;;;;;;;;;;5053809;28;20021;-43
2021/06/23 08:34:54;;;;;;;12.00;6.53;;;;;;;;;;5053601;28;20104;-41
2021/06/23 08:37:20;;;;;;;18.42;8.15;;;;;;;;;;5053451;28;20420;-43
2021/06/23 08:39:46;;;;;;;57.63;41.40;;;;;;;;;;5050938;28;20140;-43
2021/06/23 08:42:12;;;;;;;24.02;14.07;;;;;;;;;;5053801;28;20426;-43
2021/06/23 08:44:38;;;;;;;18.98;12.00;;;;;;;;;;5053365;28;20377;-41
2021/06/23 08:47:04;;;;;;;43.72;28.38;;;;;;;;;;5053378;28;20056;-41
2021/06/23 08:49:31;;;;;;;9.80;2.38;;;;;;;;;;5053433;28;20048;-45
2021/06/23 08:51:57;;;;;;;5.47;2.17;;;;;;;;;;5053299;28;20025;-44
2021/06/23 08:54:27;;;;;;;23.98;5.85;;;;;;;;;;5053341;28;20025;-41
2021/06/23 08:56:54;;;;;;;8.48;3.95;;;;;;;;;;5053254;28;20033;-42
2021/06/23 08:59:20;;;;;;;9.85;5.32;;;;;;;;;;5052891;28;20094;-43
2021/06/23 09:01:46;;;;;;;8.93;5.70;;;;;;;;;;5053208;28;20078;-45
2021/06/23 09:04:17;;;;;;;18.77;13.55;;;;;;;;;;5053264;28;20457;-44
2021/06/23 09:06:46;;;;;;;11.77;4.88;;;;;;;;;;5050511;28;20032;-44
2021/06/23 09:09:20;;;;;;;12.55;7.30;;;;;;;;;;5053108;28;20052;-43
2021/06/23 09:11:47;;;;;;;15.55;6.75;;;;;;;;;;5050773;28;20028;-41
2021/06/23 09:14:14;;;;;;;12.35;4.95;;;;;;;;;;5052794;28;20118;-42
2021/06/23 09:17:07;;;;;;;11.68;5.63;;;;;;;;;;5052989;28;20029;-43
2021/06/23 09:19:39;;;;;;;10.00;3.92;;;;;;;;;;5049529;28;20060;-42
2021/06/23 09:22:06;;;;;;;13.63;6.07;;;;;;;;;;5050680;28;20013;-41
2021/06/23 09:24:39;;;;;;;7.65;4.45;;;;;;;;;;5052716;28;20021;-43
2021/06/23 09:27:24;;;;;;;5.10;2.35;;;;;;;;;;5050494;28;20028;-41
2021/06/23 09:29:51;;;;;;;9.93;3.58;;;;;;;;;;5051027;28;20025;-42
2021/06/23 09:32:21;;;;;;;7.45;2.47;;;;;;;;;;5052480;28;20032;-42
2021/06/23 09:34:48;;;;;;;12.90;2.47;;;;;;;;;;5052700;28;20029;-42
2021/06/23 09:37:30;;;;;;;10.68;2.30;;;;;;;;;;5052566;28;20488;-41
2021/06/23 09:40:16;;;;;;;10.75;2.78;;;;;;;;;;5052197;28;20376;-41
2021/06/23 09:42:46;;;;;;;8.20;2.20;;;;;;;;;;5049683;28;20020;-43
2021/06/23 09:45:13;;;;;;;8.23;2.65;;;;;;;;;;5052578;28;20029;-42
2021/06/23 09:47:40;;;;;;;7.15;2.38;;;;;;;;;;5052503;28;20503;-43
2021/06/23 09:50:11;;;;;;;11.45;2.83;;;;;;;;;;5052502;28;20021;-43
2021/06/23 09:52:38;;;;;;;8.77;2.95;;;;;;;;;;5052456;28;20418;-42
2021/06/23 09:55:04;;;;;;;7.57;2.65;;;;;;;;;;5049686;28;20024;-43
2021/06/23 09:57:31;;;;;;;7.93;2.20;;;;;;;;;;5052244;28;20032;-42
2021/06/23 10:00:10;;;;;;;6.47;2.70;;;;;;;;;;5052362;28;20384;-43
2021/06/23 10:02:37;;;;;;;6.45;1.95;;;;;;;;;;5051826;28;20025;-42
2021/06/23 10:05:22;;;;;;;14.18;2.85;;;;;;;;;;5052690;28;20041;-43
2021/06/23 10:07:49;;;;;;;11.30;2.38;;;;;;;;;;5052769;28;20025;-42
2021/06/23 10:10:21;;;;;;;8.27;2.25;;;;;;;;;;5052728;28;20040;-43
2021/06/23 10:12:50;;;;;;;13.02;2.35;;;;;;;;;;5052674;28;20033;-43
2021/06/23 10:15:19;;;;;;;12.57;2.35;;;;;;;;;;5052380;28;20052;-43
2021/06/23 10:17:46;;;;;;;8.05;2.33;;;;;;;;;;5052062;28;20029;-42
2021/06/23 10:20:13;;;;;;;8.00;2.28;;;;;;;;;;5050745;28;20037;-43
2021/06/23 10:22:41;;;;;;;7.57;2.63;;;;;;;;;;5052315;28;20441;-43
2021/06/23 10:25:08;;;;;;;9.20;2.47;;;;;;;;;;5050580;28;20033;-44
2021/06/23 10:27:35;;;;;;;9.77;2.58;;;;;;;;;;5052167;28;20028;-43
2021/06/23 10:30:04;;;;;;;11.07;2.45;;;;;;;;;;5063944;28;20020;-43
2021/06/23 10:32:30;;;;;;;13.50;3.10;;;;;;;;;;5072568;28;20057;-43
2021/06/23 10:34:56;;;;;;;12.80;2.90;;;;;;;;;;5072271;28;20066;-43
2021/06/23 10:37:23;;;;;;;8.90;3.22;;;;;;;;;;5073615;28;20036;-44
2021/06/23 10:39:49;;;;;;;13.88;3.13;;;;;;;;;;5076554;28;20519;-44
2021/06/23 10:42:15;;;;;;;11.50;2.55;;;;;;;;;;5076285;28;20025;-44
2021/06/23 10:44:47;;;;;;;8.32;2.65;;;;;;;;;;5076267;28;20029;-43
2021/06/23 10:47:30;;;;;;;5.50;2.70;;;;;;;;;;5076291;28;20093;-43
2021/06/23 10:49:56;;;;;;;9.30;2.47;;;;;;;;;;5076109;28;20035;-43
2021/06/23 10:52:22;;;;;;;6.40;2.47;;;;;;;;;;5076324;28;20020;-43
2021/06/23 10:54:55;;;;;;;7.03;2.30;;;;;;;;;;5076097;28;20115;-43
2021/06/23 10:57:27;;;;;;;7.90;2.88;;;;;;;;;;5076004;28;20020;-43
2021/06/23 10:59:55;;;;;;;8.63;2.42;;;;;;;;;;5075470;28;20037;-44
2021/06/23 11:02:34;;;;;;;5.35;2.38;;;;;;;;;;5076466;28;20021;-43
2021/06/23 11:05:04;;;;;;;10.00;2.55;;;;;;;;;;5076085;28;20024;-44
2021/06/23 11:07:34;;;;;;;9.45;2.60;;;;;;;;;;5075932;28;20082;-43
2021/06/23 11:10:26;;;;;;;10.15;2.47;;;;;;;;;;5075800;28;20103;-44
2021/06/23 11:12:53;;;;;;;13.15;3.03;;;;;;;;;;5075442;28;20086;-43
2021/06/23 11:15:32;;;;;;;7.75;2.75;;;;;;;;;;5075634;28;20040;-43
2021/06/23 11:18:17;;;;;;;15.50;2.93;;;;;;;;;;5074270;28;20028;-43
2021/06/23 11:20:46;;;;;;;13.13;2.97;;;;;;;;;;5075548;28;20055;-44
2021/06/23 11:23:30;;;;;;;8.57;2.40;;;;;;;;;;5075504;28;20496;-43
2021/06/23 11:25:56;;;;;;;9.60;2.70;;;;;;;;;;5075450;28;20111;-44
2021/06/23 11:28:29;;;;;;;12.20;2.88;;;;;;;;;;5075572;28;20031;-44
2021/06/23 11:30:55;;;;;;;9.73;2.50;;;;;;;;;;5075029;28;20024;-44
2021/06/23 11:33:27;;;;;;;12.40;2.60;;;;;;;;;;5075353;28;20442;-44
2021/06/23 11:36:04;;;;;;;15.70;2.70;;;;;;;;;;5075202;28;20111;-44
2021/06/23 11:38:30;;;;;;;8.85;2.78;;;;;;;;;;5075336;28;20476;-43
2021/06/23 11:40:57;;;;;;;15.20;2.90;;;;;;;;;;5075395;28;20025;-43
2021/06/23 11:43:24;;;;;;;8.55;2.40;;;;;;;;;;5075136;28;20036;-42
2021/06/23 11:45:50;;;;;;;9.38;2.88;;;;;;;;;;5075103;28;20024;-43
2021/06/23 11:48:17;;;;;;;13.38;2.85;;;;;;;;;;5075015;28;20033;-44
2021/06/23 11:50:44;;;;;;;8.35;2.55;;;;;;;;;;5074929;28;20028;-43
2021/06/23 11:53:11;;;;;;;10.30;3.03;;;;;;;;;;5075210;28;20539;-43
2021/06/23 11:55:37;;;;;;;12.88;2.55;;;;;;;;;;5074843;28;20136;-43
2021/06/23 11:58:04;;;;;;;9.77;2.83;;;;;;;;;;5074877;28;20575;-44
2021/06/23 12:00:30;;;;;;;10.23;2.28;;;;;;;;;;5073127;28;20079;-43
2021/06/23 12:02:58;;;;;;;22.20;9.45;;;;;;;;;;5074900;28;20025;-43
2021/06/23 12:05:25;;;;;;;9.13;2.75;;;;;;;;;;5074506;28;20460;-43
2021/06/23 12:07:52;;;;;;;7.32;2.65;;;;;;;;;;5074683;28;20024;-43
2021/06/23 12:10:19;;;;;;;8.57;2.72;;;;;;;;;;5074740;28;20024;-43
2021/06/23 12:12:47;;;;;;;9.30;2.38;;;;;;;;;;5074419;28;20032;-43
2021/06/23 12:15:14;;;;;;;12.27;3.22;;;;;;;;;;5074415;28;20110;-43
2021/06/23 12:17:41;;;;;;;10.30;2.97;;;;;;;;;;5074423;28;20047;-43
2021/06/23 12:20:08;;;;;;;69.18;49.25;;;;;;;;;;5074112;28;20104;-43
2021/06/23 12:22:34;;;;;;;39.88;26.38;;;;;;;;;;5074427;28;20021;-45
2021/06/23 12:25:01;;;;;;;61.40;39.13;;;;;;;;;;5074174;28;20044;-43
2021/06/23 12:27:27;;;;;;;16.70;8.00;;;;;;;;;;5074249;28;20137;-42
2021/06/23 12:29:53;;;;;;;35.08;23.73;;;;;;;;;;5073699;28;20480;-42
2021/06/23 12:32:20;;;;;;;71.32;48.22;;;;;;;;;;5074081;28;20119;-41
2021/06/23 12:34:46;;;;;;;69.07;44.50;;;;;;;;;;5073800;28;20047;-42
2021/06/23 12:37:13;;;;;;;240.88;175.45;;;;;;;;;;5074131;28;20040;-43
2021/06/23 12:39:39;;;;;;;37.60;17.80;;;;;;;;;;5071910;28;20033;-42
2021/06/23 12:42:05;;;;;;;15.05;4.75;;;;;;;;;;5052375;28;20021;-45
2021/06/23 12:44:31;;;;;;;28.10;14.73;;;;;;;;;;5052822;28;20025;-41
2021/06/23 12:46:57;;;;;;;21.23;11.15;;;;;;;;;;5052193;28;20040;-42
2021/06/23 12:49:24;;;;;;;16.13;6.30;;;;;;;;;;5053628;28;20078;-42
2021/06/23 12:51:50;;;;;;;14.18;7.60;;;;;;;;;;5053712;28;20029;-43
2021/06/23 12:54:16;;;;;;;12.02;4.07;;;;;;;;;;5052426;28;20124;-44
2021/06/23 12:56:43;;;;;;;13.27;2.90;;;;;;;;;;5053888;28;20028;-43
2021/06/23 12:59:09;;;;;;;16.25;6.55;;;;;;;;;;5053459;28;20029;-43
2021/06/23 13:01:35;;;;;;;18.17;6.80;;;;;;;;;;5053422;28;20104;-42
2021/06/23 13:04:01;;;;;;;18.48;7.53;;;;;;;;;;5053491;28;20055;-43
2021/06/23 13:06:28;;;;;;;13.73;6.43;;;;;;;;;;5053514;28;20353;-43
2021/06/23 13:08:54;;;;;;;18.55;4.95;;;;;;;;;;5053661;28;20033;-43
2021/06/23 13:11:20;;;;;;;8.73;3.60;;;;;;;;;;5053595;28;20520;-43
2021/06/23 13:13:46;;;;;;;13.98;4.13;;;;;;;;;;5052269;28;20091;-43
2021/06/23 13:16:16;;;;;;;17.48;5.65;;;;;;;;;;5053861;28;20452;-42
2021/06/23 13:18:42;;;;;;;;;;;;;;;;;;5049786;28;20032;-42
2021/06/23 13:21:08;;;;;;;11.80;5.25;;;;;;;;;;5051770;28;19915;-43
2021/06/23 13:23:35;;;;;;;10.70;3.95;;;;;;;;;;5052185;28;20021;-44
2021/06/23 13:26:01;;;;;;;14.98;3.83;;;;;;;;;;5052067;28;20025;-42
2021/06/23 13:28:27;;;;;;;9.02;4.03;;;;;;;;;;5052063;28;20104;-44
2021/06/23 13:30:54;;;;;;;13.32;4.85;;;;;;;;;;5051666;28;20029;-43
2021/06/23 13:33:20;;;;;;;10.52;3.28;;;;;;;;;;5050897;28;20017;-43
2021/06/23 13:35:46;;;;;;;17.88;6.57;;;;;;;;;;5051794;28;20111;-42
2021/06/23 13:38:12;;;;;;;9.50;2.83;;;;;;;;;;5050673;28;20056;-43
2021/06/23 13:40:38;;;;;;;9.43;3.13;;;;;;;;;;5051943;28;20056;-42
2021/06/23 13:43:04;;;;;;;7.93;3.50;;;;;;;;;;5051891;28;20021;-43
2021/06/23 13:45:31;;;;;;;9.00;2.38;;;;;;;;;;5052590;28;20112;-43
2021/06/23 13:47:57;;;;;;;9.63;3.35;;;;;;;;;;5068681;28;20094;-42
2021/06/23 13:50:23;;;;;;;12.02;7.03;;;;;;;;;;5051129;28;20054;-43
2021/06/23 13:52:50;;;;;;;14.88;5.13;;;;;;;;;;5052332;28;20025;-43
2021/06/23 13:55:24;;;;;;;15.45;7.32;;;;;;;;;;5051798;28;20036;-43
2021/06/23 13:57:51;;;;;;;14.40;4.22;;;;;;;;;;5049221;28;20445;-47
2021/06/23 14:00:17;;;;;;;20.15;6.22;;;;;;;;;;5051586;28;20029;-42
2021/06/23 14:02:43;;;;;;;22.75;11.02;;;;;;;;;;5051529;28;20446;-43
2021/06/23 14:05:09;;;;;;;23.00;10.15;;;;;;;;;;5051288;28;20029;-42
2021/06/23 14:07:35;;;;;;;8.80;4.95;;;;;;;;;;5051387;28;20021;-42
2021/06/23 14:10:03;;;;;;;8.45;2.88;;;;;;;;;;5051612;28;20083;-42
2021/06/23 14:12:29;;;;;;;7.22;2.45;;;;;;;;;;5054359;28;20013;-42
2021/06/23 14:14:55;;;;;;;6.95;2.78;;;;;;;;;;5056613;28;20172;-42
2021/06/23 14:17:22;;;;;;;11.00;4.15;;;;;;;;;;5070249;28;20021;-42
2021/06/23 14:19:48;;;;;;;17.05;5.43;;;;;;;;;;5076529;28;20083;-44
2021/06/23 14:22:14;;;;;;;21.20;8.70;;;;;;;;;;5076447;28;20031;-42
2021/06/23 14:24:40;;;;;;;13.50;5.35;;;;;;;;;;5076425;28;20028;-43
2021/06/23 14:27:07;;;;;;;14.13;5.90;;;;;;;;;;5076647;28;20409;-43
2021/06/23 14:29:33;;;;;;;10.68;3.38;;;;;;;;;;5076734;28;20021;-41
2021/06/23 14:31:59;;;;;;;11.77;3.38;;;;;;;;;;5076687;28;20044;-41
2021/06/23 14:34:25;;;;;;;11.68;4.22;;;;;;;;;;5076515;28;20383;-54
2021/06/23 14:36:51;;;;;;;10.65;3.33;;;;;;;;;;5060731;28;20104;-51
2021/06/23 14:39:18;;;;;;;14.30;4.85;;;;;;;;;;5054868;28;20123;-47
2021/06/23 14:41:44;;;;;;;113.43;26.70;;;;;;;;;;5055338;28;20028;-43
2021/06/23 14:44:10;;;;;;;193.10;42.90;;;;;;;;;;5056198;28;20037;-44
2021/06/23 14:46:36;;;;;;;29.92;12.82;;;;;;;;;;5056346;28;20025;-43
2021/06/23 14:49:03;;;;;;;18.67;6.78;;;;;;;;;;5056122;28;20029;-43
2021/06/23 14:51:29;;;;;;;99.95;82.10;;;;;;;;;;5056010;28;20964;-45